Time;durP1;ratioP1;P1;durP2;ratioP2;P2;SDS_P1;SDS_P2;PMS_P1;PMS_P2;Temp;Humidity;BMP_temperature;BMP_pressure;BME280_temperature;BME280_humidity;BME280_pressure;Samples;Min_cycle;Max_cycle;Signal;HPM_P1;HPM_P2
2023/05/05 00:00:21;;;;;;;2.17;0.70;;;;;;;7.05;41.17;102737.06;5037479;28;20029;-72
2023/05/05 00:02:47;;;;;;;1.70;0.70;;;;;;;7.28;40.85;102761.91;5018252;28;20179;-72
2023/05/05 00:05:13;;;;;;;3.50;0.60;;;;;;;7.29;41.27;102771.63;5040372;28;20029;-72
2023/05/05 00:07:38;;;;;;;2.55;0.80;;;;;;;7.32;41.36;102762.50;5032551;28;20522;-72
2023/05/05 00:10:04;;;;;;;3.97;0.65;;;;;;;7.03;42.76;102738.19;5037519;28;20415;-72
2023/05/05 00:12:30;;;;;;;1.83;0.70;;;;;;;7.20;43.13;102756.34;5037878;28;20091;-72
2023/05/05 00:14:56;;;;;;;1.65;0.70;;;;;;;7.26;43.18;102761.19;5039860;28;20021;-71
2023/05/05 00:17:21;;;;;;;1.20;0.60;;;;;;;7.38;42.97;102769.16;5037844;28;20032;-72
2023/05/05 00:19:47;;;;;;;2.45;0.70;;;;;;;7.24;44.21;102763.13;5034984;28;20030;-72
2023/05/05 00:22:12;;;;;;;1.08;0.60;;;;;;;7.21;44.86;102767.91;5035147;28;20033;-72
2023/05/05 00:24:38;;;;;;;2.58;0.70;;;;;;;7.23;44.62;102758.75;5034532;28;20432;-72
2023/05/05 00:27:03;;;;;;;1.15;0.63;;;;;;;7.19;45.64;102762.69;5035530;28;20037;-72
2023/05/05 00:29:29;;;;;;;1.58;0.70;;;;;;;7.28;45.25;102769.94;5033982;28;20041;-72
2023/05/05 00:31:55;;;;;;;2.42;0.55;;;;;;;7.33;45.89;102774.06;5034090;28;20037;-72
2023/05/05 00:34:20;;;;;;;1.38;0.60;;;;;;;7.51;45.82;102772.47;5035691;28;20028;-72
2023/05/05 00:36:46;;;;;;;2.05;0.68;;;;;;;7.47;46.11;102769.22;5034494;28;20101;-71
2023/05/05 00:39:12;;;;;;;1.65;0.70;;;;;;;7.45;46.74;102776.56;5036352;28;20144;-72
2023/05/05 00:41:37;;;;;;;1.17;0.70;;;;;;;7.40;46.82;102767.19;5035932;28;20038;-72
2023/05/05 00:44:03;;;;;;;1.73;0.80;;;;;;;7.63;45.63;102776.81;5034043;28;20029;-72
2023/05/05 00:46:30;;;;;;;2.97;0.75;;;;;;;7.56;46.05;102753.34;5035256;28;20041;-71
2023/05/05 00:48:56;;;;;;;1.73;0.70;;;;;;;7.63;46.01;102771.44;5057039;28;20037;-72
2023/05/05 00:51:24;;;;;;;1.15;0.68;;;;;;;7.71;46.44;102779.66;5033147;28;20112;-72
2023/05/05 00:53:49;;;;;;;2.28;0.85;;;;;;;7.63;46.34;102775.97;5035115;28;20048;-72
2023/05/05 00:56:20;;;;;;;0.93;0.60;;;;;;;7.55;46.66;102765.91;5033611;28;20025;-72
2023/05/05 00:58:46;;;;;;;3.10;0.90;;;;;;;7.55;47.30;102776.63;5035241;28;20030;-72
2023/05/05 01:01:13;;;;;;;2.28;0.70;;;;;;;7.45;47.68;102757.81;5035451;28;20137;-72
2023/05/05 01:03:40;;;;;;;3.15;0.93;;;;;;;7.59;47.89;102778.06;5035569;28;20029;-72
2023/05/05 01:06:26;;;;;;;3.28;0.70;;;;;;;7.55;49.51;102773.94;5033510;28;20026;-72
2023/05/05 01:09:19;;;;;;;1.83;0.90;;;;;;;7.51;51.40;102777.84;5035385;28;20066;-72
2023/05/05 01:12:17;;;;;;;3.67;0.90;;;;;;;7.40;52.73;102776.09;5034357;28;20025;-72
2023/05/05 01:14:54;;;;;;;2.88;0.85;;;;;;;7.64;49.57;102774.97;5033833;28;20029;-72
2023/05/05 01:17:27;;;;;;;1.90;0.90;;;;;;;7.68;49.10;102779.94;5035510;28;20447;-72
2023/05/05 01:20:07;;;;;;;4.25;0.80;;;;;;;7.72;49.62;102780.53;5034102;28;20025;-72
2023/05/05 01:22:40;;;;;;;1.55;0.68;;;;;;;7.77;49.43;102783.66;5034821;28;20029;-72
2023/05/05 01:25:19;;;;;;;2.45;0.70;;;;;;;7.88;49.77;102785.41;5036417;28;20094;-72
2023/05/05 01:28:29;;;;;;;2.55;1.05;;;;;;;7.97;50.72;102781.94;5032593;28;20354;-72
2023/05/05 01:31:16;;;;;;;1.83;0.93;;;;;;;8.00;50.75;102781.66;5025569;28;20041;-72
2023/05/05 01:33:47;;;;;;;2.47;0.90;;;;;;;8.09;49.73;102788.06;5035075;28;20071;-72
2023/05/05 01:36:22;;;;;;;3.35;0.88;;;;;;;8.08;50.16;102778.31;5036328;28;20033;-72
2023/05/05 01:38:54;;;;;;;3.05;0.88;;;;;;;8.06;51.41;102791.00;5036094;28;20041;-72
2023/05/05 01:41:25;;;;;;;1.67;0.93;;;;;;;7.98;51.32;102776.44;5034452;28;20029;-72
2023/05/05 01:43:53;;;;;;;2.75;0.98;;;;;;;8.08;51.50;102792.59;5038535;28;20059;-72
2023/05/05 01:46:22;;;;;;;2.38;0.98;;;;;;;7.93;52.49;102770.63;5037441;28;20154;-72
2023/05/05 01:48:48;;;;;;;1.73;0.90;;;;;;;8.04;51.95;102772.34;5036297;28;20048;-72
2023/05/05 01:51:16;;;;;;;3.28;1.33;;;;;;;8.17;53.24;102793.59;5041793;28;20039;-73
2023/05/05 01:53:42;;;;;;;2.42;0.88;;;;;;;8.12;53.31;102779.75;5039436;28;20045;-71
2023/05/05 01:56:10;;;;;;;3.50;0.98;;;;;;;8.20;53.73;102804.91;5037565;28;20025;-72
2023/05/05 01:58:36;;;;;;;3.38;1.10;;;;;;;8.28;54.33;102804.25;5037354;28;20411;-72
2023/05/05 02:01:04;;;;;;;1.98;0.80;;;;;;;8.28;53.52;102798.00;5023982;28;20057;-72
2023/05/05 02:03:30;;;;;;;1.67;1.00;;;;;;;8.41;53.54;102810.25;5022965;28;20554;-72
2023/05/05 02:05:59;;;;;;;2.50;1.05;;;;;;;8.29;54.51;102803.25;5038006;28;20137;-72
2023/05/05 02:08:25;;;;;;;2.40;1.08;;;;;;;8.16;55.45;102800.78;5037304;28;20022;-72
2023/05/05 02:10:53;;;;;;;1.88;1.10;;;;;;;8.14;56.25;102807.25;5037265;28;20128;-72
2023/05/05 02:13:20;;;;;;;1.98;1.20;;;;;;;8.01;56.36;102780.66;5046785;28;20097;-72
2023/05/05 02:15:47;;;;;;;1.58;0.90;;;;;;;8.17;56.96;102801.63;5050702;28;20097;-71
2023/05/05 02:18:13;;;;;;;3.58;1.10;;;;;;;8.43;54.76;102805.59;5037815;28;20021;-72
2023/05/05 02:20:39;;;;;;;1.25;0.73;;;;;;;7.97;58.46;102804.22;5021156;28;20033;-71
2023/05/05 02:23:26;;;;;;;3.70;1.30;;;;;;;8.19;58.03;102805.03;5038611;28;20029;-72
2023/05/05 02:25:56;;;;;;;2.85;0.82;;;;;;;8.50;55.66;102813.09;5038762;28;20029;-71
2023/05/05 02:28:36;;;;;;;2.63;1.20;;;;;;;8.40;55.91;102805.00;5037575;28;20021;-72
2023/05/05 02:31:05;;;;;;;2.22;1.17;;;;;;;8.40;56.10;102813.06;5043637;28;20029;-71
2023/05/05 02:33:33;;;;;;;2.08;1.00;;;;;;;7.85;58.06;102775.81;5038799;28;20064;-71
2023/05/05 02:36:10;;;;;;;2.08;1.05;;;;;;;8.19;57.62;102807.72;5040086;28;20124;-71
2023/05/05 02:38:41;;;;;;;3.35;1.13;;;;;;;8.26;57.54;102811.56;5036496;28;20126;-71
2023/05/05 02:41:12;;;;;;;3.70;1.50;;;;;;;8.16;57.67;102810.69;5037507;28;20025;-72
2023/05/05 02:43:41;;;;;;;1.60;0.93;;;;;;;8.06;57.15;102791.84;5036789;28;20033;-72
2023/05/05 02:46:07;;;;;;;4.97;1.08;;;;;;;8.16;57.11;102813.34;5036122;28;20123;-72
2023/05/05 02:48:32;;;;;;;3.35;0.90;;;;;;;7.99;58.70;102814.81;5040673;28;20053;-72
2023/05/05 02:50:58;;;;;;;2.33;1.02;;;;;;;8.10;57.34;102816.56;5035700;28;20033;-72
2023/05/05 02:53:26;;;;;;;3.30;1.30;;;;;;;7.92;58.63;102827.91;5020302;28;20026;-72
2023/05/05 02:55:56;;;;;;;3.97;1.38;;;;;;;7.82;58.77;102818.13;5038151;28;20389;-72
2023/05/05 02:58:38;;;;;;;2.92;1.30;;;;;;;7.80;59.25;102815.56;5036373;28;20033;-72
2023/05/05 03:01:32;;;;;;;3.20;1.40;;;;;;;7.58;59.88;102794.25;5037770;28;20030;-72
2023/05/05 03:04:06;;;;;;;2.35;1.42;;;;;;;7.74;59.10;102816.91;5036573;28;20025;-72
2023/05/05 03:06:35;;;;;;;;;;;;;;;7.66;60.65;102818.56;5036697;28;20128;-72
2023/05/05 03:09:07;;;;;;;3.20;1.25;;;;;;;7.70;58.10;102826.19;5037263;28;19962;-72
2023/05/05 03:11:42;;;;;;;4.07;1.38;;;;;;;7.54;58.30;102823.13;5035636;28;20029;-72
2023/05/05 03:14:11;;;;;;;2.97;1.50;;;;;;;7.47;58.58;102828.16;5044267;28;20017;-72
2023/05/05 03:16:39;;;;;;;2.75;1.35;;;;;;;7.32;59.06;102823.22;5047156;28;20021;-72
2023/05/05 03:19:09;;;;;;;2.88;1.30;;;;;;;7.17;59.25;102806.63;5042673;28;20107;-72
2023/05/05 03:21:35;;;;;;;2.50;1.35;;;;;;;7.48;57.92;102826.31;5036845;28;20033;-72
2023/05/05 03:24:11;;;;;;;2.78;1.20;;;;;;;7.57;57.89;102830.91;5036578;28;20029;-72
2023/05/05 03:26:36;;;;;;;2.47;1.55;;;;;;;7.60;57.61;102829.81;5037131;28;20013;-72
2023/05/05 03:29:04;;;;;;;3.92;1.33;;;;;;;7.34;59.03;102832.00;5019990;28;20048;-72
2023/05/05 03:31:30;;;;;;;2.22;1.15;;;;;;;7.03;59.67;102808.63;5047423;28;20216;-72
2023/05/05 03:33:55;;;;;;;4.95;1.52;;;;;;;7.21;59.42;102840.19;5049544;28;20107;-72
2023/05/05 03:36:20;;;;;;;2.78;1.42;;;;;;;7.39;58.18;102836.00;5045697;28;20034;-71
2023/05/05 03:38:46;;;;;;;2.78;1.20;;;;;;;7.40;58.63;102832.31;5037750;28;20052;-72
2023/05/05 03:41:11;;;;;;;2.20;1.30;;;;;;;7.40;58.34;102828.81;5038497;28;20033;-71
2023/05/05 03:43:38;;;;;;;3.17;1.50;;;;;;;7.68;58.01;102838.03;5037124;28;20022;-72
2023/05/05 03:46:04;;;;;;;2.00;1.23;;;;;;;7.84;57.24;102838.41;5038915;28;20033;-71
2023/05/05 03:48:30;;;;;;;2.85;1.50;;;;;;;7.96;56.90;102841.91;5035775;28;20377;-71
2023/05/05 03:50:55;;;;;;;3.85;1.42;;;;;;;8.15;56.39;102847.38;5038529;28;20125;-72
2023/05/05 03:53:21;;;;;;;3.90;1.48;;;;;;;8.72;55.50;102847.78;5036616;28;20208;-72
2023/05/05 03:55:47;;;;;;;2.28;1.40;;;;;;;9.48;52.70;102849.88;5035391;28;20033;-71
2023/05/05 03:58:12;;;;;;;3.13;1.42;;;;;;;10.09;50.71;102839.56;5033635;28;20032;-72
2023/05/05 04:00:38;;;;;;;3.40;1.23;;;;;;;10.13;50.33;102858.94;5035656;28;20044;-71
2023/05/05 04:03:03;;;;;;;3.55;1.38;;;;;;;10.26;50.16;102867.56;5035778;28;20099;-72
2023/05/05 04:05:29;;;;;;;3.78;1.52;;;;;;;10.60;49.17;102861.66;5034724;28;20041;-72
2023/05/05 04:07:56;;;;;;;5.22;1.30;;;;;;;10.05;49.63;102799.66;5039030;28;20025;-72
2023/05/05 04:10:22;;;;;;;2.42;1.13;;;;;;;10.86;48.26;102858.25;5046534;28;20013;-71
2023/05/05 04:12:47;;;;;;;3.28;1.25;;;;;;;11.38;46.69;102858.47;5049359;28;20085;-70
2023/05/05 04:15:13;;;;;;;4.28;1.20;;;;;;;11.11;47.21;102848.59;5055073;28;20014;-72
2023/05/05 04:17:38;;;;;;;4.97;1.25;;;;;;;11.34;47.04;102867.88;5041758;28;20052;-72
2023/05/05 04:20:05;;;;;;;2.67;1.20;;;;;;;11.47;46.55;102863.78;5003912;28;20032;-72
2023/05/05 04:22:32;;;;;;;2.25;1.30;;;;;;;11.56;45.97;102870.09;5035595;28;20021;-72
2023/05/05 04:24:58;;;;;;;4.70;1.30;;;;;;;11.85;45.05;102883.31;5034470;28;20041;-72
2023/05/05 04:27:25;;;;;;;4.53;2.00;;;;;;;12.03;44.63;102871.69;5034830;28;20366;-74
2023/05/05 04:29:50;;;;;;;9.20;1.33;;;;;;;12.08;44.20;102877.44;5034753;28;20029;-74
2023/05/05 04:32:16;;;;;;;4.07;1.40;;;;;;;12.39;43.68;102889.44;5033644;28;20087;-74
2023/05/05 04:34:42;;;;;;;2.85;1.30;;;;;;;12.60;43.16;102882.81;5033976;28;20021;-72
2023/05/05 04:37:07;;;;;;;5.60;1.50;;;;;;;12.61;43.02;102871.81;5032853;28;20040;-71
2023/05/05 04:39:33;;;;;;;2.92;1.42;;;;;;;12.73;42.42;102866.16;5035723;28;20029;-71
2023/05/05 04:41:58;;;;;;;3.00;1.50;;;;;;;12.76;41.97;102884.72;5038473;28;20037;-72
2023/05/05 04:44:24;;;;;;;6.93;1.65;;;;;;;12.93;41.47;102887.31;5032226;28;20374;-72
2023/05/05 04:46:50;;;;;;;6.93;1.85;;;;;;;12.73;41.29;102882.34;5036270;28;20037;-72
2023/05/05 04:49:15;;;;;;;8.85;1.95;;;;;;;13.23;40.40;102890.44;5019133;28;20126;-72
2023/05/05 04:51:41;;;;;;;2.88;1.10;;;;;;;13.36;40.01;102882.72;5017236;28;20033;-73
2023/05/05 04:54:07;;;;;;;1.50;1.00;;;;;;;13.95;39.38;102888.00;5033326;28;20030;-72
2023/05/05 04:56:32;;;;;;;4.80;1.20;;;;;;;13.78;39.21;102884.44;5032404;28;20051;-72
2023/05/05 04:58:57;;;;;;;2.47;1.35;;;;;;;14.76;38.06;102891.53;5033717;28;20026;-72
2023/05/05 05:01:23;;;;;;;5.43;1.20;;;;;;;15.06;37.80;102892.56;5032325;28;20045;-71
2023/05/05 05:03:48;;;;;;;7.55;1.20;;;;;;;15.25;37.08;102886.69;5033413;28;20032;-71
2023/05/05 05:06:14;;;;;;;2.72;1.10;;;;;;;15.18;37.00;102887.59;5033545;28;20396;-72
2023/05/05 05:08:39;;;;;;;2.03;0.93;;;;;;;14.98;36.21;102885.34;5033756;28;20076;-72
2023/05/05 05:11:05;;;;;;;3.05;0.98;;;;;;;14.32;36.76;102886.56;5033778;28;20152;-72
2023/05/05 05:13:30;;;;;;;2.75;0.90;;;;;;;14.29;36.55;102885.06;5034382;28;20044;-72
2023/05/05 05:15:56;;;;;;;1.75;0.90;;;;;;;14.28;36.36;102885.25;5033110;28;20029;-72
2023/05/05 05:18:21;;;;;;;2.65;0.85;;;;;;;14.20;35.55;102886.09;5039657;28;20033;-72
2023/05/05 05:20:47;;;;;;;2.35;0.70;;;;;;;13.50;36.01;102883.09;5015568;28;20059;-72
2023/05/05 05:23:12;;;;;;;2.95;0.90;;;;;;;14.33;35.00;102880.13;5033032;28;20052;-72
2023/05/05 05:25:37;;;;;;;2.08;0.80;;;;;;;12.86;37.05;102888.16;5039271;28;20030;-73
2023/05/05 05:28:03;;;;;;;2.75;0.98;;;;;;;12.05;38.58;102881.28;5042849;28;20088;-72
2023/05/05 05:30:28;;;;;;;2.50;0.82;;;;;;;11.59;38.73;102872.50;5002832;28;20507;-73
2023/05/05 05:32:53;;;;;;;2.88;0.80;;;;;;;11.36;38.87;102887.44;5015896;28;20488;-72
2023/05/05 05:35:19;;;;;;;1.63;0.90;;;;;;;11.24;39.14;102884.94;5033171;28;20238;-72
2023/05/05 05:37:46;;;;;;;1.60;0.75;;;;;;;11.74;39.09;102884.41;5032473;28;20068;-73
2023/05/05 05:40:12;;;;;;;5.00;1.00;;;;;;;10.88;39.61;102885.88;5034361;28;20042;-72
2023/05/05 05:42:38;;;;;;;2.75;0.75;;;;;;;10.54;38.81;102894.56;5016162;28;20034;-72
2023/05/05 05:45:05;;;;;;;1.13;0.80;;;;;;;10.64;38.50;102889.97;5036066;28;20029;-72
2023/05/05 05:47:31;;;;;;;2.05;0.73;;;;;;;10.55;38.09;102880.94;5001485;28;20025;-72
2023/05/05 05:49:56;;;;;;;6.35;0.90;;;;;;;11.35;38.12;102888.41;5034562;28;20048;-72
2023/05/05 05:52:22;;;;;;;2.00;0.75;;;;;;;11.72;37.31;102886.44;5034973;28;20476;-71
2023/05/05 05:54:47;;;;;;;1.83;0.80;;;;;;;11.60;37.13;102887.66;5034025;28;20445;-71
2023/05/05 05:57:13;;;;;;;1.95;0.90;;;;;;;11.67;36.75;102888.72;5034004;28;20067;-73
2023/05/05 05:59:38;;;;;;;2.33;0.90;;;;;;;11.62;36.04;102891.06;5032667;28;20558;-72
2023/05/05 06:02:04;;;;;;;1.63;0.68;;;;;;;11.59;36.61;102888.66;5032782;28;20036;-73
2023/05/05 06:04:30;;;;;;;4.75;0.70;;;;;;;11.47;36.64;102900.69;5023273;28;20025;-72
2023/05/05 06:06:56;;;;;;;2.90;0.80;;;;;;;11.38;36.47;102899.75;5032680;28;20079;-73
2023/05/05 06:09:21;;;;;;;1.05;0.73;;;;;;;11.50;36.05;102900.38;5031289;28;20037;-74
2023/05/05 06:11:47;;;;;;;2.28;0.70;;;;;;;11.12;36.42;102905.00;5032917;28;20037;-74
2023/05/05 06:14:12;;;;;;;1.67;0.80;;;;;;;11.00;35.86;102884.69;5030760;28;20105;-73
2023/05/05 06:16:38;;;;;;;2.20;0.90;;;;;;;11.37;35.73;102903.44;5044549;28;20070;-73
2023/05/05 06:19:08;;;;;;;2.15;0.80;;;;;;;11.21;35.60;102904.13;5036914;28;20083;-74
2023/05/05 06:21:36;;;;;;;5.43;0.73;;;;;;;11.22;35.48;102880.69;5039806;28;20024;-74
2023/05/05 06:24:02;;;;;;;2.22;0.88;;;;;;;11.86;35.13;102881.50;5043598;28;20038;-73
2023/05/05 06:26:27;;;;;;;0.88;0.60;;;;;;;11.96;34.76;102901.97;5035143;28;20448;-73
2023/05/05 06:28:53;;;;;;;5.07;0.75;;;;;;;12.33;34.09;102900.03;5036827;28;20641;-73
2023/05/05 06:31:18;;;;;;;4.45;0.75;;;;;;;12.45;34.14;102906.88;5036735;28;20037;-73
2023/05/05 06:33:44;;;;;;;6.05;0.82;;;;;;;12.44;33.80;102903.28;5037883;28;20055;-73
2023/05/05 06:36:09;;;;;;;1.02;0.50;;;;;;;12.34;33.82;102907.13;5035241;28;20029;-72
2023/05/05 06:38:35;;;;;;;3.17;0.70;;;;;;;11.39;34.41;102906.84;5034939;28;20065;-72
2023/05/05 06:41:00;;;;;;;1.30;0.80;;;;;;;11.61;34.17;102904.69;5035535;28;20078;-72
2023/05/05 06:43:27;;;;;;;1.63;0.70;;;;;;;11.14;34.33;102902.19;5036519;28;20022;-72
2023/05/05 06:45:53;;;;;;;3.13;0.80;;;;;;;11.40;34.04;102878.88;5035796;28;20036;-72
2023/05/05 06:48:18;;;;;;;4.97;1.08;;;;;;;12.19;33.56;102912.28;5018949;28;20030;-72
2023/05/05 06:50:44;;;;;;;3.60;0.80;;;;;;;12.52;33.04;102893.56;5038590;28;20021;-70
2023/05/05 06:53:09;;;;;;;2.45;0.85;;;;;;;12.33;33.20;102908.13;5034612;28;20025;-72
2023/05/05 06:55:35;;;;;;;2.75;0.70;;;;;;;12.14;33.36;102898.38;5035498;28;20061;-69
2023/05/05 06:58:01;;;;;;;1.42;0.70;;;;;;;11.77;33.09;102902.97;5034700;28;20108;-70
2023/05/05 07:00:26;;;;;;;1.15;0.57;;;;;;;12.01;32.93;102917.69;5034224;28;20064;-74
2023/05/05 07:02:52;;;;;;;1.50;0.60;;;;;;;11.80;32.52;102903.66;5033575;28;20076;-71
2023/05/05 07:05:17;;;;;;;1.42;0.60;;;;;;;12.32;32.61;102904.59;5036413;28;20128;-71
2023/05/05 07:07:53;;;;;;;2.30;0.73;;;;;;;11.87;31.69;102905.59;5035806;28;20025;-72
2023/05/05 07:10:21;;;;;;;2.20;0.60;;;;;;;12.41;32.46;102906.31;5025130;28;20030;-74
2023/05/05 07:12:47;;;;;;;1.48;0.65;;;;;;;11.79;32.04;102915.44;5041654;28;20128;-71
2023/05/05 07:15:13;;;;;;;0.98;0.57;;;;;;;11.63;32.62;102898.13;5038035;28;20037;-71
2023/05/05 07:17:39;;;;;;;4.10;0.70;;;;;;;11.66;32.15;102900.53;5036148;28;20048;-72
2023/05/05 07:20:06;;;;;;;0.95;0.65;;;;;;;12.06;31.85;102888.41;5032137;28;20061;-72
2023/05/05 07:22:31;;;;;;;4.10;0.70;;;;;;;11.82;31.56;102898.94;5021389;28;20029;-73
2023/05/05 07:24:57;;;;;;;4.47;0.60;;;;;;;12.51;31.93;102898.09;5032461;28;20036;-73
2023/05/05 07:27:23;;;;;;;3.58;0.70;;;;;;;12.92;31.86;102885.63;5035431;28;20041;-73
2023/05/05 07:29:48;;;;;;;1.55;0.70;;;;;;;13.12;31.52;102893.47;5033309;28;20034;-73
2023/05/05 07:32:14;;;;;;;1.95;0.75;;;;;;;12.64;31.69;102897.66;5033459;28;20017;-73
2023/05/05 07:34:40;;;;;;;1.50;0.73;;;;;;;13.26;31.30;102900.97;5032868;28;20032;-74
2023/05/05 07:37:06;;;;;;;1.20;0.50;;;;;;;12.58;31.68;102855.97;5034100;28;20026;-73
2023/05/05 07:39:32;;;;;;;1.88;0.60;;;;;;;12.51;30.90;102898.09;5032436;28;20055;-73
2023/05/05 07:41:58;;;;;;;4.68;0.60;;;;;;;12.36;31.25;102897.03;5015192;28;20564;-72
2023/05/05 07:44:23;;;;;;;1.08;0.60;;;;;;;11.99;30.99;102876.53;5035206;28;20034;-71
2023/05/05 07:47:28;;;;;;;1.13;0.63;;;;;;;12.54;30.94;102903.19;5034090;28;20029;-70
2023/05/05 07:49:54;;;;;;;1.95;0.90;;;;;;;12.33;30.29;102889.25;5036271;28;20025;-71
2023/05/05 07:52:19;;;;;;;1.10;0.60;;;;;;;12.13;30.27;102894.84;5042759;28;20049;-74
2023/05/05 07:54:46;;;;;;;1.95;0.60;;;;;;;11.86;30.63;102900.38;5037183;28;20059;-74
2023/05/05 07:57:12;;;;;;;0.73;0.55;;;;;;;12.30;29.97;102884.16;5037592;28;20036;-73
2023/05/05 07:59:39;;;;;;;1.50;0.57;;;;;;;11.81;29.96;102892.72;5035556;28;20112;-73
2023/05/05 08:02:05;;;;;;;3.40;0.60;;;;;;;11.80;30.03;102906.38;5036370;28;20606;-74
2023/05/05 08:04:30;;;;;;;1.58;0.70;;;;;;;12.39;29.68;102894.84;5033737;28;20030;-72
2023/05/05 08:06:56;;;;;;;1.05;0.60;;;;;;;12.53;29.69;102885.31;5006670;28;20057;-70
2023/05/05 08:09:21;;;;;;;1.58;0.77;;;;;;;13.29;29.92;102897.94;5033379;28;20033;-72
2023/05/05 08:11:47;;;;;;;1.83;0.70;;;;;;;13.43;29.86;102892.88;5029389;28;20033;-72
2023/05/05 08:14:13;;;;;;;2.03;0.60;;;;;;;12.83;29.64;102889.31;5032145;28;20075;-71
2023/05/05 08:16:39;;;;;;;2.35;0.63;;;;;;;13.26;29.98;102886.59;5015651;28;20037;-71
2023/05/05 08:19:04;;;;;;;4.50;0.80;;;;;;;13.40;29.50;102888.66;5032416;28;20033;-72
2023/05/05 08:21:30;;;;;;;1.90;0.68;;;;;;;12.60;29.76;102896.31;5031602;28;20033;-72
2023/05/05 08:23:56;;;;;;;1.05;0.50;;;;;;;12.59;28.84;102902.72;5031519;28;20037;-71
2023/05/05 08:26:21;;;;;;;1.27;0.55;;;;;;;12.80;29.68;102886.94;5031794;28;20036;-71
2023/05/05 08:28:48;;;;;;;1.85;0.63;;;;;;;12.63;29.02;102890.59;5028333;28;20051;-71
2023/05/05 08:31:13;;;;;;;0.95;0.50;;;;;;;12.34;27.56;102890.94;5031706;28;20048;-71
2023/05/05 08:33:38;;;;;;;1.92;0.65;;;;;;;12.25;28.96;102898.16;5038566;28;20029;-72
2023/05/05 08:36:05;;;;;;;2.92;0.60;;;;;;;12.79;28.70;102889.81;5052593;28;20029;-72
2023/05/05 08:38:30;;;;;;;0.60;0.60;;;;;;;13.12;28.76;102891.59;5034365;28;20057;-72
2023/05/05 08:40:55;;;;;;;1.30;0.68;;;;;;;13.17;28.14;102888.41;5034303;28;20095;-72
2023/05/05 08:43:22;;;;;;;1.08;0.60;;;;;;;13.17;28.43;102891.09;5032879;28;20033;-72
2023/05/05 08:45:48;;;;;;;1.77;0.90;;;;;;;13.14;28.84;102886.91;5030939;28;20056;-72
2023/05/05 08:48:18;;;;;;;1.08;0.43;;;;;;;13.18;27.94;102890.09;5032500;28;20029;-72
2023/05/05 08:50:47;;;;;;;1.20;0.57;;;;;;;13.19;27.72;102870.16;5032366;28;20532;-72
2023/05/05 08:53:16;;;;;;;1.40;0.57;;;;;;;12.83;27.79;102878.50;5029239;28;20481;-71
2023/05/05 08:55:50;;;;;;;1.70;0.65;;;;;;;12.94;27.18;102864.69;5031444;28;20068;-71
2023/05/05 08:58:20;;;;;;;1.25;0.50;;;;;;;12.60;27.89;102874.69;5030831;28;20033;-72
2023/05/05 09:00:45;;;;;;;3.92;0.50;;;;;;;12.44;27.99;102876.28;5030986;28;20038;-73
2023/05/05 09:03:11;;;;;;;2.10;0.63;;;;;;;12.79;28.02;102879.84;5032182;28;20033;-72
2023/05/05 09:05:37;;;;;;;2.10;0.80;;;;;;;12.59;28.43;102881.13;5032413;28;20052;-72
2023/05/05 09:08:08;;;;;;;1.50;0.52;;;;;;;12.61;27.83;102884.47;5030471;28;20100;-72
2023/05/05 09:10:35;;;;;;;1.45;0.60;;;;;;;12.57;28.25;102869.63;5030980;28;20025;-72
2023/05/05 09:13:03;;;;;;;1.50;0.60;;;;;;;12.29;28.01;102877.91;5030962;28;20554;-71
2023/05/05 09:15:29;;;;;;;1.58;0.90;;;;;;;13.00;27.87;102876.69;5030200;28;20037;-72
2023/05/05 09:18:00;;;;;;;2.55;0.60;;;;;;;13.00;28.29;102875.84;5031670;28;20030;-72
2023/05/05 09:20:36;;;;;;;1.83;0.60;;;;;;;13.50;28.04;102875.81;5033151;28;20464;-72
2023/05/05 09:23:13;;;;;;;1.95;0.70;;;;;;;13.64;28.25;102868.88;5030449;28;20029;-72
2023/05/05 09:25:40;;;;;;;2.65;0.60;;;;;;;13.50;27.58;102870.41;5030510;28;20077;-72
2023/05/05 09:28:13;;;;;;;1.27;0.50;;;;;;;13.19;28.21;102853.94;5013420;28;20508;-72
2023/05/05 09:30:40;;;;;;;1.85;0.68;;;;;;;13.11;28.35;102868.31;5029791;28;20056;-72
2023/05/05 09:33:06;;;;;;;1.10;0.52;;;;;;;12.71;28.17;102885.19;5029805;28;20030;-72
2023/05/05 09:35:50;;;;;;;2.35;0.70;;;;;;;12.71;28.66;102874.41;5029044;28;20041;-72
2023/05/05 09:38:16;;;;;;;1.55;0.60;;;;;;;13.26;28.34;102871.22;5031339;28;20133;-72
2023/05/05 09:40:47;;;;;;;1.40;0.50;;;;;;;13.27;28.15;102880.16;5032294;28;20029;-73
2023/05/05 09:43:12;;;;;;;0.90;0.52;;;;;;;14.14;28.01;102869.69;5031266;28;20022;-73
2023/05/05 09:45:38;;;;;;;1.40;0.60;;;;;;;14.45;27.32;102835.41;5029021;28;20037;-72
2023/05/05 09:48:05;;;;;;;1.98;0.70;;;;;;;14.68;27.77;102848.22;5031020;28;20041;-72
2023/05/05 09:50:42;;;;;;;2.40;0.40;;;;;;;14.27;27.28;102868.16;5031038;28;20036;-72
2023/05/05 09:53:08;;;;;;;3.53;0.77;;;;;;;14.27;26.56;102873.56;5029469;28;20041;-72
2023/05/05 09:55:34;;;;;;;1.45;0.60;;;;;;;12.62;28.13;102851.94;5031270;28;20025;-72
2023/05/05 09:58:22;;;;;;;2.83;0.75;;;;;;;12.51;27.48;102863.00;5005740;28;20097;-72
2023/05/05 10:00:48;;;;;;;1.20;0.90;;;;;;;13.24;27.92;102866.94;5028631;28;20054;-73
2023/05/05 10:03:13;;;;;;;1.15;0.50;;;;;;;13.81;27.55;102857.06;5033966;28;20404;-71
2023/05/05 10:06:06;;;;;;;3.40;0.50;;;;;;;14.52;27.88;102849.97;5035601;28;20038;-72
2023/05/05 10:08:33;;;;;;;3.08;0.80;;;;;;;14.54;27.35;102834.41;5031963;28;20045;-72
2023/05/05 10:11:05;;;;;;;1.27;0.68;;;;;;;13.89;27.34;102858.91;5033818;28;20049;-72
2023/05/05 10:13:35;;;;;;;2.88;0.77;;;;;;;13.56;27.26;102837.28;5035448;28;20017;-72
2023/05/05 10:16:02;;;;;;;1.45;0.60;;;;;;;14.50;26.95;102840.28;5035529;28;20115;-71
2023/05/05 10:18:30;;;;;;;1.75;1.08;;;;;;;14.32;27.49;102835.97;5033340;28;20126;-71
2023/05/05 10:20:57;;;;;;;0.90;0.60;;;;;;;13.96;27.78;102845.53;5034339;28;20029;-72
2023/05/05 10:23:26;;;;;;;2.72;0.65;;;;;;;13.87;27.74;102850.09;5034612;28;20033;-71
2023/05/05 10:26:02;;;;;;;2.33;0.60;;;;;;;14.70;27.47;102840.75;5033385;28;20488;-72
2023/05/05 10:28:36;;;;;;;1.00;0.68;;;;;;;14.07;27.94;102837.91;5033588;28;20026;-72
2023/05/05 10:31:04;;;;;;;1.05;0.50;;;;;;;13.53;28.36;102843.03;5034762;28;20087;-71
2023/05/05 10:33:38;;;;;;;1.17;0.60;;;;;;;13.57;28.42;102848.94;5019262;28;20033;-72
2023/05/05 10:36:05;;;;;;;1.00;0.70;;;;;;;13.70;27.98;102843.00;5035124;28;20029;-70
2023/05/05 10:38:32;;;;;;;1.10;0.60;;;;;;;14.41;27.87;102834.09;5035371;28;20103;-73
2023/05/05 10:41:01;;;;;;;3.45;0.70;;;;;;;14.83;26.98;102829.34;5037629;28;20120;-72
2023/05/05 10:43:29;;;;;;;1.15;0.70;;;;;;;14.23;26.79;102811.78;5045986;28;20124;-72
2023/05/05 10:45:55;;;;;;;2.15;0.70;;;;;;;15.01;26.88;102832.63;5036755;28;20044;-73
2023/05/05 10:48:39;;;;;;;1.17;0.60;;;;;;;14.71;26.64;102824.31;5036113;28;20488;-73
2023/05/05 10:51:21;;;;;;;1.13;0.55;;;;;;;15.00;25.78;102829.09;5036192;28;20047;-72
2023/05/05 10:54:01;;;;;;;1.45;0.50;;;;;;;14.34;26.17;102808.72;5033753;28;20025;-72
2023/05/05 10:56:31;;;;;;;6.28;0.63;;;;;;;14.62;27.10;102819.97;5015430;28;20133;-72
2023/05/05 10:58:57;;;;;;;1.90;1.00;;;;;;;15.42;26.57;102810.63;5015490;28;20521;-71
2023/05/05 11:01:34;;;;;;;1.98;0.70;;;;;;;15.23;25.14;102823.69;5014680;28;20037;-71
2023/05/05 11:04:22;;;;;;;2.78;0.80;;;;;;;14.15;25.64;102817.25;5012966;28;20034;-72
2023/05/05 11:07:09;;;;;;;1.63;0.60;;;;;;;14.62;26.35;102801.00;5014681;28;20049;-71
2023/05/05 11:09:41;;;;;;;1.45;0.55;;;;;;;14.56;25.97;102799.81;5026647;28;20365;-71
2023/05/05 11:12:07;;;;;;;0.80;0.52;;;;;;;14.07;25.96;102804.56;5033215;28;20076;-70
2023/05/05 11:14:33;;;;;;;1.02;0.60;;;;;;;14.30;26.08;102793.81;5032802;28;20492;-72
2023/05/05 11:16:59;;;;;;;1.08;0.50;;;;;;;13.71;26.02;102801.41;5033416;28;20543;-71
2023/05/05 11:19:45;;;;;;;1.15;0.60;;;;;;;14.00;26.12;102790.03;5034901;28;20025;-70
2023/05/05 11:22:11;;;;;;;1.65;0.82;;;;;;;14.67;26.07;102800.44;5033591;28;20179;-71
2023/05/05 11:24:38;;;;;;;1.00;0.60;;;;;;;14.23;25.85;102782.84;5034169;28;20447;-71
2023/05/05 11:27:04;;;;;;;1.92;0.68;;;;;;;15.20;25.68;102787.94;5034325;28;20493;-71
2023/05/05 11:30:08;;;;;;;0.82;0.50;;;;;;;14.79;24.46;102790.91;5032446;28;20112;-71
2023/05/05 11:32:33;;;;;;;2.30;0.55;;;;;;;15.32;25.54;102791.88;5037137;28;20044;-71
2023/05/05 11:35:00;;;;;;;2.95;0.73;;;;;;;15.75;24.92;102786.78;5034843;28;20071;-71